sensor_id;sensor_type;location;lat;lon;timestamp;P1;durP1;ratioP1;P2;durP2;ratioP2
10311;SDS011;5201;48.776;9.128;2022-07-29T00:02:02;2.92;;;2.20;;
10311;SDS011;5201;48.776;9.128;2022-07-29T00:04:28;3.55;;;2.25;;
10311;SDS011;5201;48.776;9.128;2022-07-29T00:06:53;4.35;;;2.03;;
10311;SDS011;5201;48.776;9.128;2022-07-29T00:09:19;3.10;;;2.13;;
10311;SDS011;5201;48.776;9.128;2022-07-29T00:11:45;4.13;;;2.20;;
10311;SDS011;5201;48.776;9.128;2022-07-29T00:14:10;5.15;;;2.38;;
10311;SDS011;5201;48.776;9.128;2022-07-29T00:16:36;2.40;;;2.03;;
10311;SDS011;5201;48.776;9.128;2022-07-29T00:19:02;3.95;;;2.33;;
10311;SDS011;5201;48.776;9.128;2022-07-29T00:21:28;2.80;;;2.20;;
10311;SDS011;5201;48.776;9.128;2022-07-29T00:23:54;2.45;;;2.08;;
10311;SDS011;5201;48.776;9.128;2022-07-29T00:26:20;4.97;;;1.83;;
10311;SDS011;5201;48.776;9.128;2022-07-29T00:28:46;2.00;;;1.90;;
10311;SDS011;5201;48.776;9.128;2022-07-29T00:31:12;2.90;;;2.20;;
10311;SDS011;5201;48.776;9.128;2022-07-29T00:33:37;4.95;;;2.17;;
10311;SDS011;5201;48.776;9.128;2022-07-29T00:36:03;2.90;;;1.92;;
10311;SDS011;5201;48.776;9.128;2022-07-29T00:38:29;1.80;;;1.70;;
10311;SDS011;5201;48.776;9.128;2022-07-29T00:40:54;2.53;;;2.10;;
10311;SDS011;5201;48.776;9.128;2022-07-29T00:43:20;3.72;;;2.05;;
10311;SDS011;5201;48.776;9.128;2022-07-29T00:45:46;2.55;;;2.35;;
10311;SDS011;5201;48.776;9.128;2022-07-29T00:48:11;2.60;;;1.60;;
10311;SDS011;5201;48.776;9.128;2022-07-29T00:50:37;2.05;;;1.60;;
10311;SDS011;5201;48.776;9.128;2022-07-29T00:53:04;5.38;;;1.80;;
10311;SDS011;5201;48.776;9.128;2022-07-29T00:55:31;1.73;;;1.50;;
10311;SDS011;5201;48.776;9.128;2022-07-29T00:57:57;1.60;;;1.50;;
10311;SDS011;5201;48.776;9.128;2022-07-29T01:00:24;2.15;;;1.40;;
10311;SDS011;5201;48.776;9.128;2022-07-29T01:02:50;4.65;;;1.55;;
10311;SDS011;5201;48.776;9.128;2022-07-29T01:05:17;2.28;;;1.95;;
10311;SDS011;5201;48.776;9.128;2022-07-29T01:07:45;1.85;;;1.65;;
10311;SDS011;5201;48.776;9.128;2022-07-29T01:10:13;1.83;;;1.70;;
10311;SDS011;5201;48.776;9.128;2022-07-29T01:12:40;8.27;;;1.65;;
10311;SDS011;5201;48.776;9.128;2022-07-29T01:15:09;3.13;;;1.90;;
10311;SDS011;5201;48.776;9.128;2022-07-29T01:17:46;2.13;;;1.58;;
10311;SDS011;5201;48.776;9.128;2022-07-29T01:31:31;1.65;;;1.33;;
10311;SDS011;5201;48.776;9.128;2022-07-29T01:34:11;1.40;;;1.30;;
10311;SDS011;5201;48.776;9.128;2022-07-29T01:36:46;1.83;;;1.70;;
10311;SDS011;5201;48.776;9.128;2022-07-29T01:39:33;2.47;;;1.50;;
10311;SDS011;5201;48.776;9.128;2022-07-29T01:45:12;1.65;;;1.55;;
10311;SDS011;5201;48.776;9.128;2022-07-29T01:47:43;1.33;;;1.23;;
10311;SDS011;5201;48.776;9.128;2022-07-29T01:50:30;2.33;;;1.38;;
10311;SDS011;5201;48.776;9.128;2022-07-29T01:53:11;1.88;;;1.50;;
10311;SDS011;5201;48.776;9.128;2022-07-29T01:55:40;2.22;;;1.52;;
10311;SDS011;5201;48.776;9.128;2022-07-29T01:58:09;1.45;;;1.35;;
10311;SDS011;5201;48.776;9.128;2022-07-29T02:00:37;1.70;;;1.60;;
10311;SDS011;5201;48.776;9.128;2022-07-29T02:03:07;1.98;;;1.30;;
10311;SDS011;5201;48.776;9.128;2022-07-29T02:05:35;2.53;;;1.60;;
10311;SDS011;5201;48.776;9.128;2022-07-29T02:08:04;1.52;;;1.40;;
10311;SDS011;5201;48.776;9.128;2022-07-29T02:10:31;1.63;;;1.30;;
10311;SDS011;5201;48.776;9.128;2022-07-29T02:12:59;1.83;;;1.40;;
10311;SDS011;5201;48.776;9.128;2022-07-29T02:15:28;1.75;;;1.23;;
10311;SDS011;5201;48.776;9.128;2022-07-29T02:18:01;1.48;;;1.38;;
10311;SDS011;5201;48.776;9.128;2022-07-29T02:20:32;1.63;;;1.42;;
10311;SDS011;5201;48.776;9.128;2022-07-29T02:22:59;2.28;;;1.42;;
10311;SDS011;5201;48.776;9.128;2022-07-29T02:25:27;1.95;;;1.45;;
10311;SDS011;5201;48.776;9.128;2022-07-29T02:27:54;2.72;;;1.40;;
10311;SDS011;5201;48.776;9.128;2022-07-29T02:30:21;2.00;;;1.50;;
10311;SDS011;5201;48.776;9.128;2022-07-29T02:32:48;1.08;;;1.00;;
10311;SDS011;5201;48.776;9.128;2022-07-29T02:35:15;1.45;;;1.30;;
10311;SDS011;5201;48.776;9.128;2022-07-29T02:37:43;3.20;;;1.38;;
10311;SDS011;5201;48.776;9.128;2022-07-29T02:40:13;1.98;;;1.50;;
10311;SDS011;5201;48.776;9.128;2022-07-29T02:42:41;3.42;;;1.30;;
10311;SDS011;5201;48.776;9.128;2022-07-29T02:45:09;1.40;;;1.30;;
10311;SDS011;5201;48.776;9.128;2022-07-29T02:47:36;1.42;;;1.33;;
10311;SDS011;5201;48.776;9.128;2022-07-29T02:50:08;1.40;;;1.30;;
10311;SDS011;5201;48.776;9.128;2022-07-29T02:52:38;1.48;;;1.38;;
10311;SDS011;5201;48.776;9.128;2022-07-29T02:55:26;1.20;;;1.10;;
10311;SDS011;5201;48.776;9.128;2022-07-29T02:57:58;1.50;;;1.40;;
10311;SDS011;5201;48.776;9.128;2022-07-29T03:00:27;1.92;;;1.17;;
10311;SDS011;5201;48.776;9.128;2022-07-29T03:02:55;1.75;;;1.20;;
10311;SDS011;5201;48.776;9.128;2022-07-29T03:05:23;2.08;;;1.50;;
10311;SDS011;5201;48.776;9.128;2022-07-29T03:07:52;1.88;;;1.38;;
10311;SDS011;5201;48.776;9.128;2022-07-29T03:10:21;1.33;;;1.23;;
10311;SDS011;5201;48.776;9.128;2022-07-29T03:12:47;1.77;;;1.60;;
10311;SDS011;5201;48.776;9.128;2022-07-29T03:15:14;1.60;;;1.50;;
10311;SDS011;5201;48.776;9.128;2022-07-29T03:17:40;1.70;;;1.58;;
10311;SDS011;5201;48.776;9.128;2022-07-29T03:20:06;2.17;;;1.30;;
10311;SDS011;5201;48.776;9.128;2022-07-29T03:22:32;1.30;;;1.10;;
10311;SDS011;5201;48.776;9.128;2022-07-29T03:25:09;2.45;;;1.40;;
10311;SDS011;5201;48.776;9.128;2022-07-29T03:27:36;6.97;;;1.40;;
10311;SDS011;5201;48.776;9.128;2022-07-29T03:30:01;1.58;;;1.45;;
10311;SDS011;5201;48.776;9.128;2022-07-29T03:32:28;4.22;;;1.52;;
10311;SDS011;5201;48.776;9.128;2022-07-29T03:34:53;1.50;;;1.40;;
10311;SDS011;5201;48.776;9.128;2022-07-29T03:37:19;3.15;;;1.50;;
10311;SDS011;5201;48.776;9.128;2022-07-29T03:39:45;1.98;;;1.52;;
10311;SDS011;5201;48.776;9.128;2022-07-29T03:42:13;1.53;;;1.43;;
10311;SDS011;5201;48.776;9.128;2022-07-29T03:44:40;2.22;;;1.40;;
10311;SDS011;5201;48.776;9.128;2022-07-29T03:47:08;2.63;;;1.60;;
10311;SDS011;5201;48.776;9.128;2022-07-29T03:49:36;1.98;;;1.60;;
10311;SDS011;5201;48.776;9.128;2022-07-29T03:52:02;2.28;;;1.45;;
10311;SDS011;5201;48.776;9.128;2022-07-29T03:54:29;1.52;;;1.42;;
10311;SDS011;5201;48.776;9.128;2022-07-29T03:56:55;1.67;;;1.58;;
10311;SDS011;5201;48.776;9.128;2022-07-29T03:59:24;3.65;;;1.50;;
10311;SDS011;5201;48.776;9.128;2022-07-29T04:01:50;3.42;;;1.60;;
10311;SDS011;5201;48.776;9.128;2022-07-29T04:04:16;1.70;;;1.60;;
10311;SDS011;5201;48.776;9.128;2022-07-29T04:06:44;1.90;;;1.60;;
10311;SDS011;5201;48.776;9.128;2022-07-29T04:09:11;2.75;;;1.80;;
10311;SDS011;5201;48.776;9.128;2022-07-29T04:11:40;1.52;;;1.42;;
10311;SDS011;5201;48.776;9.128;2022-07-29T04:14:06;1.63;;;1.52;;
10311;SDS011;5201;48.776;9.128;2022-07-29T04:16:32;1.83;;;1.50;;
10311;SDS011;5201;48.776;9.128;2022-07-29T04:18:58;1.98;;;1.75;;
10311;SDS011;5201;48.776;9.128;2022-07-29T04:21:24;1.60;;;1.25;;
10311;SDS011;5201;48.776;9.128;2022-07-29T04:23:49;1.65;;;1.45;;
10311;SDS011;5201;48.776;9.128;2022-07-29T04:26:16;1.73;;;1.63;;
10311;SDS011;5201;48.776;9.128;2022-07-29T04:28:42;1.77;;;1.60;;
10311;SDS011;5201;48.776;9.128;2022-07-29T04:31:08;3.45;;;1.50;;
10311;SDS011;5201;48.776;9.128;2022-07-29T04:33:35;1.50;;;1.20;;
10311;SDS011;5201;48.776;9.128;2022-07-29T04:36:00;2.58;;;1.88;;
10311;SDS011;5201;48.776;9.128;2022-07-29T04:38:26;1.58;;;1.45;;
10311;SDS011;5201;48.776;9.128;2022-07-29T04:40:51;1.70;;;1.17;;
10311;SDS011;5201;48.776;9.128;2022-07-29T04:43:17;1.38;;;1.23;;
10311;SDS011;5201;48.776;9.128;2022-07-29T04:48:10;1.38;;;1.15;;
10311;SDS011;5201;48.776;9.128;2022-07-29T04:50:39;1.35;;;1.25;;
10311;SDS011;5201;48.776;9.128;2022-07-29T04:53:06;1.35;;;1.10;;
10311;SDS011;5201;48.776;9.128;2022-07-29T04:55:32;0.82;;;0.82;;
10311;SDS011;5201;48.776;9.128;2022-07-29T04:57:58;1.90;;;1.20;;
10311;SDS011;5201;48.776;9.128;2022-07-29T05:00:24;1.38;;;1.27;;
10311;SDS011;5201;48.776;9.128;2022-07-29T05:02:49;1.33;;;1.23;;
10311;SDS011;5201;48.776;9.128;2022-07-29T05:05:15;2.90;;;1.10;;
10311;SDS011;5201;48.776;9.128;2022-07-29T05:07:41;1.33;;;1.08;;
10311;SDS011;5201;48.776;9.128;2022-07-29T05:10:07;1.73;;;0.90;;
10311;SDS011;5201;48.776;9.128;2022-07-29T05:12:33;0.80;;;0.80;;
10311;SDS011;5201;48.776;9.128;2022-07-29T05:14:59;0.90;;;0.90;;
10311;SDS011;5201;48.776;9.128;2022-07-29T05:17:24;1.02;;;1.00;;
10311;SDS011;5201;48.776;9.128;2022-07-29T05:19:50;1.58;;;1.13;;
10311;SDS011;5201;48.776;9.128;2022-07-29T05:22:17;2.45;;;1.27;;
10311;SDS011;5201;48.776;9.128;2022-07-29T05:24:46;1.27;;;1.17;;
10311;SDS011;5201;48.776;9.128;2022-07-29T05:27:11;2.10;;;1.17;;
10311;SDS011;5201;48.776;9.128;2022-07-29T05:29:37;1.05;;;0.98;;
10311;SDS011;5201;48.776;9.128;2022-07-29T05:32:03;1.85;;;1.30;;
10311;SDS011;5201;48.776;9.128;2022-07-29T05:34:29;1.20;;;1.10;;
10311;SDS011;5201;48.776;9.128;2022-07-29T05:36:55;0.95;;;0.95;;
10311;SDS011;5201;48.776;9.128;2022-07-29T05:39:21;1.23;;;1.13;;
10311;SDS011;5201;48.776;9.128;2022-07-29T05:41:47;3.20;;;1.20;;
10311;SDS011;5201;48.776;9.128;2022-07-29T05:44:12;2.05;;;1.23;;
10311;SDS011;5201;48.776;9.128;2022-07-29T05:46:38;3.58;;;1.27;;
10311;SDS011;5201;48.776;9.128;2022-07-29T05:49:04;2.28;;;1.35;;
10311;SDS011;5201;48.776;9.128;2022-07-29T05:51:31;1.80;;;1.30;;
10311;SDS011;5201;48.776;9.128;2022-07-29T05:53:57;1.50;;;1.20;;
10311;SDS011;5201;48.776;9.128;2022-07-29T05:56:23;1.02;;;0.93;;
10311;SDS011;5201;48.776;9.128;2022-07-29T05:58:49;1.00;;;0.90;;
10311;SDS011;5201;48.776;9.128;2022-07-29T06:01:15;1.17;;;1.05;;
10311;SDS011;5201;48.776;9.128;2022-07-29T06:03:41;2.33;;;1.45;;
10311;SDS011;5201;48.776;9.128;2022-07-29T06:06:07;1.75;;;1.20;;
10311;SDS011;5201;48.776;9.128;2022-07-29T06:08:33;1.33;;;1.10;;
10311;SDS011;5201;48.776;9.128;2022-07-29T06:11:01;1.58;;;1.40;;
10311;SDS011;5201;48.776;9.128;2022-07-29T06:13:28;3.30;;;1.30;;
10311;SDS011;5201;48.776;9.128;2022-07-29T06:15:54;1.20;;;1.10;;
10311;SDS011;5201;48.776;9.128;2022-07-29T06:18:20;1.20;;;1.10;;
10311;SDS011;5201;48.776;9.128;2022-07-29T06:20:48;1.00;;;0.90;;
10311;SDS011;5201;48.776;9.128;2022-07-29T06:23:14;1.00;;;0.90;;
10311;SDS011;5201;48.776;9.128;2022-07-29T06:25:40;1.30;;;1.20;;
10311;SDS011;5201;48.776;9.128;2022-07-29T06:28:06;1.52;;;1.38;;
10311;SDS011;5201;48.776;9.128;2022-07-29T06:30:32;2.55;;;1.40;;
10311;SDS011;5201;48.776;9.128;2022-07-29T06:32:57;1.00;;;0.90;;
10311;SDS011;5201;48.776;9.128;2022-07-29T06:35:23;1.92;;;1.13;;
10311;SDS011;5201;48.776;9.128;2022-07-29T06:37:49;1.45;;;1.08;;
10311;SDS011;5201;48.776;9.128;2022-07-29T06:40:14;3.53;;;0.90;;
10311;SDS011;5201;48.776;9.128;2022-07-29T06:42:58;1.45;;;1.15;;
10311;SDS011;5201;48.776;9.128;2022-07-29T06:45:24;1.17;;;1.10;;
10311;SDS011;5201;48.776;9.128;2022-07-29T06:47:50;1.08;;;1.00;;
10311;SDS011;5201;48.776;9.128;2022-07-29T06:50:15;1.42;;;1.17;;
10311;SDS011;5201;48.776;9.128;2022-07-29T06:52:41;6.75;;;1.20;;
10311;SDS011;5201;48.776;9.128;2022-07-29T06:55:07;1.63;;;1.30;;
10311;SDS011;5201;48.776;9.128;2022-07-29T06:57:33;2.78;;;1.40;;
10311;SDS011;5201;48.776;9.128;2022-07-29T06:59:59;2.13;;;1.40;;
10311;SDS011;5201;48.776;9.128;2022-07-29T07:02:25;3.72;;;1.30;;
10311;SDS011;5201;48.776;9.128;2022-07-29T07:04:51;1.00;;;1.00;;
10311;SDS011;5201;48.776;9.128;2022-07-29T07:07:16;1.85;;;1.30;;
10311;SDS011;5201;48.776;9.128;2022-07-29T07:09:42;1.63;;;1.30;;
10311;SDS011;5201;48.776;9.128;2022-07-29T07:12:08;4.35;;;1.38;;
10311;SDS011;5201;48.776;9.128;2022-07-29T07:14:34;2.45;;;1.33;;
10311;SDS011;5201;48.776;9.128;2022-07-29T07:16:59;1.83;;;1.30;;
10311;SDS011;5201;48.776;9.128;2022-07-29T07:19:26;1.73;;;1.38;;
10311;SDS011;5201;48.776;9.128;2022-07-29T07:21:52;2.17;;;1.50;;
10311;SDS011;5201;48.776;9.128;2022-07-29T07:24:18;4.05;;;1.30;;
10311;SDS011;5201;48.776;9.128;2022-07-29T07:26:43;4.20;;;1.70;;
10311;SDS011;5201;48.776;9.128;2022-07-29T07:29:09;1.90;;;1.33;;
10311;SDS011;5201;48.776;9.128;2022-07-29T07:31:36;1.45;;;1.20;;
10311;SDS011;5201;48.776;9.128;2022-07-29T07:34:02;2.30;;;1.20;;
10311;SDS011;5201;48.776;9.128;2022-07-29T07:36:28;1.92;;;1.42;;
10311;SDS011;5201;48.776;9.128;2022-07-29T07:38:54;2.50;;;2.10;;
10311;SDS011;5201;48.776;9.128;2022-07-29T07:41:20;3.45;;;1.70;;
10311;SDS011;5201;48.776;9.128;2022-07-29T07:43:46;2.65;;;1.60;;
10311;SDS011;5201;48.776;9.128;2022-07-29T07:46:11;3.83;;;1.70;;
10311;SDS011;5201;48.776;9.128;2022-07-29T07:48:37;2.95;;;1.50;;
10311;SDS011;5201;48.776;9.128;2022-07-29T07:51:02;2.25;;;1.58;;
10311;SDS011;5201;48.776;9.128;2022-07-29T07:53:28;3.80;;;1.40;;
10311;SDS011;5201;48.776;9.128;2022-07-29T07:55:54;1.58;;;1.00;;
10311;SDS011;5201;48.776;9.128;2022-07-29T07:58:20;6.05;;;1.38;;
10311;SDS011;5201;48.776;9.128;2022-07-29T08:00:46;1.45;;;1.13;;
10311;SDS011;5201;48.776;9.128;2022-07-29T08:03:12;1.77;;;1.67;;
10311;SDS011;5201;48.776;9.128;2022-07-29T08:05:38;2.30;;;1.50;;
10311;SDS011;5201;48.776;9.128;2022-07-29T08:08:05;2.10;;;1.48;;
10311;SDS011;5201;48.776;9.128;2022-07-29T08:10:31;1.30;;;1.20;;
10311;SDS011;5201;48.776;9.128;2022-07-29T08:13:15;3.63;;;1.60;;
10311;SDS011;5201;48.776;9.128;2022-07-29T08:15:40;3.60;;;1.27;;
10311;SDS011;5201;48.776;9.128;2022-07-29T08:18:07;1.83;;;1.30;;
10311;SDS011;5201;48.776;9.128;2022-07-29T08:20:33;1.77;;;1.23;;
10311;SDS011;5201;48.776;9.128;2022-07-29T08:23:00;3.75;;;1.35;;
10311;SDS011;5201;48.776;9.128;2022-07-29T08:25:27;1.10;;;1.05;;
10311;SDS011;5201;48.776;9.128;2022-07-29T08:27:53;1.50;;;1.40;;
10311;SDS011;5201;48.776;9.128;2022-07-29T08:30:19;1.60;;;1.17;;
10311;SDS011;5201;48.776;9.128;2022-07-29T08:32:44;3.03;;;1.40;;
10311;SDS011;5201;48.776;9.128;2022-07-29T08:35:12;3.22;;;1.40;;
10311;SDS011;5201;48.776;9.128;2022-07-29T08:37:37;1.30;;;1.20;;
10311;SDS011;5201;48.776;9.128;2022-07-29T08:40:03;2.50;;;1.27;;
10311;SDS011;5201;48.776;9.128;2022-07-29T08:42:31;5.97;;;1.40;;
10311;SDS011;5201;48.776;9.128;2022-07-29T08:44:56;7.47;;;1.67;;
10311;SDS011;5201;48.776;9.128;2022-07-29T08:47:23;2.20;;;1.58;;
10311;SDS011;5201;48.776;9.128;2022-07-29T08:49:51;1.42;;;1.20;;
10311;SDS011;5201;48.776;9.128;2022-07-29T08:52:17;2.45;;;1.45;;
10311;SDS011;5201;48.776;9.128;2022-07-29T08:54:44;4.38;;;1.50;;
10311;SDS011;5201;48.776;9.128;2022-07-29T08:57:12;5.38;;;1.30;;
10311;SDS011;5201;48.776;9.128;2022-07-29T08:59:39;2.80;;;1.70;;
10311;SDS011;5201;48.776;9.128;2022-07-29T09:02:08;1.80;;;1.40;;
10311;SDS011;5201;48.776;9.128;2022-07-29T09:04:43;1.92;;;1.50;;
10311;SDS011;5201;48.776;9.128;2022-07-29T09:07:10;2.08;;;1.33;;
10311;SDS011;5201;48.776;9.128;2022-07-29T09:09:43;1.90;;;1.38;;
10311;SDS011;5201;48.776;9.128;2022-07-29T09:12:09;1.92;;;1.70;;
10311;SDS011;5201;48.776;9.128;2022-07-29T09:14:37;6.93;;;1.60;;
10311;SDS011;5201;48.776;9.128;2022-07-29T09:17:06;3.80;;;1.90;;
10311;SDS011;5201;48.776;9.128;2022-07-29T09:19:33;5.22;;;1.45;;
10311;SDS011;5201;48.776;9.128;2022-07-29T09:22:01;3.45;;;1.40;;
10311;SDS011;5201;48.776;9.128;2022-07-29T09:27:02;4.40;;;1.55;;
10311;SDS011;5201;48.776;9.128;2022-07-29T09:29:34;2.17;;;1.40;;
10311;SDS011;5201;48.776;9.128;2022-07-29T09:32:02;1.67;;;1.58;;
10311;SDS011;5201;48.776;9.128;2022-07-29T09:34:33;3.60;;;1.60;;
10311;SDS011;5201;48.776;9.128;2022-07-29T09:36:59;2.63;;;1.70;;
10311;SDS011;5201;48.776;9.128;2022-07-29T09:39:28;2.47;;;1.40;;
10311;SDS011;5201;48.776;9.128;2022-07-29T09:41:56;2.92;;;1.42;;
10311;SDS011;5201;48.776;9.128;2022-07-29T09:44:24;2.00;;;1.10;;
10311;SDS011;5201;48.776;9.128;2022-07-29T09:49:19;3.70;;;1.23;;
10311;SDS011;5201;48.776;9.128;2022-07-29T09:51:45;2.38;;;1.50;;
10311;SDS011;5201;48.776;9.128;2022-07-29T09:54:24;2.25;;;1.70;;
10311;SDS011;5201;48.776;9.128;2022-07-29T09:56:52;2.20;;;1.40;;
10311;SDS011;5201;48.776;9.128;2022-07-29T09:59:18;3.05;;;1.40;;
10311;SDS011;5201;48.776;9.128;2022-07-29T10:01:51;5.93;;;1.60;;
10311;SDS011;5201;48.776;9.128;2022-07-29T10:04:18;3.05;;;1.77;;
10311;SDS011;5201;48.776;9.128;2022-07-29T10:06:59;2.28;;;1.33;;
10311;SDS011;5201;48.776;9.128;2022-07-29T10:09:26;6.20;;;1.52;;
10311;SDS011;5201;48.776;9.128;2022-07-29T10:12:02;4.90;;;1.67;;
10311;SDS011;5201;48.776;9.128;2022-07-29T10:14:30;4.45;;;1.80;;
10311;SDS011;5201;48.776;9.128;2022-07-29T10:16:58;4.18;;;1.52;;
10311;SDS011;5201;48.776;9.128;2022-07-29T10:19:25;5.18;;;1.58;;
10311;SDS011;5201;48.776;9.128;2022-07-29T10:21:52;2.70;;;1.80;;
10311;SDS011;5201;48.776;9.128;2022-07-29T10:24:18;3.30;;;1.80;;
10311;SDS011;5201;48.776;9.128;2022-07-29T10:26:44;3.22;;;2.20;;
10311;SDS011;5201;48.776;9.128;2022-07-29T10:29:11;2.83;;;1.77;;
10311;SDS011;5201;48.776;9.128;2022-07-29T10:31:45;3.97;;;2.08;;
10311;SDS011;5201;48.776;9.128;2022-07-29T10:34:41;2.90;;;1.83;;
10311;SDS011;5201;48.776;9.128;2022-07-29T10:43:22;2.33;;;1.92;;
10311;SDS011;5201;48.776;9.128;2022-07-29T10:45:55;3.35;;;2.13;;
10311;SDS011;5201;48.776;9.128;2022-07-29T10:48:22;3.65;;;1.80;;
10311;SDS011;5201;48.776;9.128;2022-07-29T10:50:58;2.53;;;1.77;;
10311;SDS011;5201;48.776;9.128;2022-07-29T10:56:26;1.70;;;1.52;;
10311;SDS011;5201;48.776;9.128;2022-07-29T11:01:46;4.28;;;2.50;;
10311;SDS011;5201;48.776;9.128;2022-07-29T11:04:15;5.78;;;2.45;;
10311;SDS011;5201;48.776;9.128;2022-07-29T11:09:29;6.22;;;3.10;;
10311;SDS011;5201;48.776;9.128;2022-07-29T11:11:56;4.18;;;2.40;;
10311;SDS011;5201;48.776;9.128;2022-07-29T11:15:04;4.05;;;2.60;;
10311;SDS011;5201;48.776;9.128;2022-07-29T11:17:16;6.28;;;2.88;;
10311;SDS011;5201;48.776;9.128;2022-07-29T11:19:42;7.63;;;2.67;;
10311;SDS011;5201;48.776;9.128;2022-07-29T11:22:09;3.05;;;2.70;;
10311;SDS011;5201;48.776;9.128;2022-07-29T11:24:35;7.25;;;3.22;;
10311;SDS011;5201;48.776;9.128;2022-07-29T11:27:09;4.68;;;2.90;;
10311;SDS011;5201;48.776;9.128;2022-07-29T11:29:40;7.68;;;3.13;;
10311;SDS011;5201;48.776;9.128;2022-07-29T11:32:16;4.28;;;2.78;;
10311;SDS011;5201;48.776;9.128;2022-07-29T11:34:44;6.00;;;3.45;;
10311;SDS011;5201;48.776;9.128;2022-07-29T11:45:02;4.22;;;3.38;;
10311;SDS011;5201;48.776;9.128;2022-07-29T11:50:28;4.60;;;3.22;;
10311;SDS011;5201;48.776;9.128;2022-07-29T11:52:58;5.65;;;3.22;;
10311;SDS011;5201;48.776;9.128;2022-07-29T11:55:25;5.55;;;3.42;;
10311;SDS011;5201;48.776;9.128;2022-07-29T11:57:55;6.60;;;4.22;;
10311;SDS011;5201;48.776;9.128;2022-07-29T12:02:54;4.30;;;3.08;;
10311;SDS011;5201;48.776;9.128;2022-07-29T12:05:20;5.20;;;3.50;;
10311;SDS011;5201;48.776;9.128;2022-07-29T12:07:46;6.90;;;3.92;;
10311;SDS011;5201;48.776;9.128;2022-07-29T12:10:13;5.50;;;3.60;;
10311;SDS011;5201;48.776;9.128;2022-07-29T12:12:40;5.45;;;3.88;;
10311;SDS011;5201;48.776;9.128;2022-07-29T12:15:15;6.25;;;3.90;;
10311;SDS011;5201;48.776;9.128;2022-07-29T12:17:44;6.38;;;3.80;;
10311;SDS011;5201;48.776;9.128;2022-07-29T12:20:10;6.53;;;3.47;;
10311;SDS011;5201;48.776;9.128;2022-07-29T12:22:38;4.93;;;3.35;;
10311;SDS011;5201;48.776;9.128;2022-07-29T12:25:06;5.68;;;3.15;;
10311;SDS011;5201;48.776;9.128;2022-07-29T12:27:37;3.67;;;2.80;;
10311;SDS011;5201;48.776;9.128;2022-07-29T12:30:07;3.55;;;2.85;;
10311;SDS011;5201;48.776;9.128;2022-07-29T12:32:35;6.03;;;3.33;;
10311;SDS011;5201;48.776;9.128;2022-07-29T12:35:06;7.57;;;3.40;;
10311;SDS011;5201;48.776;9.128;2022-07-29T12:37:38;4.70;;;3.17;;
10311;SDS011;5201;48.776;9.128;2022-07-29T12:40:06;7.53;;;3.60;;
10311;SDS011;5201;48.776;9.128;2022-07-29T12:42:33;4.35;;;3.10;;
10311;SDS011;5201;48.776;9.128;2022-07-29T12:44:59;5.70;;;3.53;;
10311;SDS011;5201;48.776;9.128;2022-07-29T12:47:26;4.72;;;2.80;;
10311;SDS011;5201;48.776;9.128;2022-07-29T12:50:08;5.05;;;2.83;;
10311;SDS011;5201;48.776;9.128;2022-07-29T12:52:43;5.47;;;2.70;;
10311;SDS011;5201;48.776;9.128;2022-07-29T12:55:10;2.75;;;2.05;;
10311;SDS011;5201;48.776;9.128;2022-07-29T12:57:48;4.00;;;2.25;;
10311;SDS011;5201;48.776;9.128;2022-07-29T13:00:21;2.50;;;2.30;;
10311;SDS011;5201;48.776;9.128;2022-07-29T13:02:54;2.97;;;2.53;;
10311;SDS011;5201;48.776;9.128;2022-07-29T13:05:24;5.13;;;2.40;;
10311;SDS011;5201;48.776;9.128;2022-07-29T13:08:14;3.63;;;2.53;;
10311;SDS011;5201;48.776;9.128;2022-07-29T13:10:41;7.22;;;2.60;;
10311;SDS011;5201;48.776;9.128;2022-07-29T13:13:08;10.48;;;2.53;;
10311;SDS011;5201;48.776;9.128;2022-07-29T13:15:36;5.90;;;2.03;;
10311;SDS011;5201;48.776;9.128;2022-07-29T13:18:04;2.80;;;2.38;;
10311;SDS011;5201;48.776;9.128;2022-07-29T13:20:30;3.92;;;2.55;;
10311;SDS011;5201;48.776;9.128;2022-07-29T13:22:56;3.33;;;2.70;;
10311;SDS011;5201;48.776;9.128;2022-07-29T13:25:25;6.03;;;2.38;;
10311;SDS011;5201;48.776;9.128;2022-07-29T13:27:55;4.25;;;1.80;;
10311;SDS011;5201;48.776;9.128;2022-07-29T13:30:21;2.83;;;2.38;;
10311;SDS011;5201;48.776;9.128;2022-07-29T13:32:48;3.38;;;2.58;;
10311;SDS011;5201;48.776;9.128;2022-07-29T13:35:14;5.03;;;2.95;;
10311;SDS011;5201;48.776;9.128;2022-07-29T13:37:40;5.50;;;2.88;;
10311;SDS011;5201;48.776;9.128;2022-07-29T13:40:06;6.13;;;3.22;;
10311;SDS011;5201;48.776;9.128;2022-07-29T13:42:33;3.95;;;2.75;;
10311;SDS011;5201;48.776;9.128;2022-07-29T13:44:59;4.38;;;2.85;;
10311;SDS011;5201;48.776;9.128;2022-07-29T13:47:25;8.82;;;3.28;;
10311;SDS011;5201;48.776;9.128;2022-07-29T13:49:51;4.20;;;2.88;;
10311;SDS011;5201;48.776;9.128;2022-07-29T13:52:18;6.32;;;3.70;;
10311;SDS011;5201;48.776;9.128;2022-07-29T13:54:44;4.18;;;2.80;;
10311;SDS011;5201;48.776;9.128;2022-07-29T13:57:10;4.18;;;2.95;;
10311;SDS011;5201;48.776;9.128;2022-07-29T13:59:36;2.97;;;2.60;;
10311;SDS011;5201;48.776;9.128;2022-07-29T14:02:02;4.50;;;3.15;;
10311;SDS011;5201;48.776;9.128;2022-07-29T14:04:28;3.35;;;3.05;;
10311;SDS011;5201;48.776;9.128;2022-07-29T14:06:54;3.15;;;2.80;;
10311;SDS011;5201;48.776;9.128;2022-07-29T14:09:19;3.90;;;2.45;;
10311;SDS011;5201;48.776;9.128;2022-07-29T14:11:45;5.20;;;3.10;;
10311;SDS011;5201;48.776;9.128;2022-07-29T14:14:12;5.03;;;2.90;;
10311;SDS011;5201;48.776;9.128;2022-07-29T14:16:38;4.20;;;2.15;;
10311;SDS011;5201;48.776;9.128;2022-07-29T14:19:04;7.60;;;2.55;;
10311;SDS011;5201;48.776;9.128;2022-07-29T14:21:29;3.95;;;2.72;;
10311;SDS011;5201;48.776;9.128;2022-07-29T14:23:55;3.92;;;3.33;;
10311;SDS011;5201;48.776;9.128;2022-07-29T14:26:21;6.03;;;2.60;;
10311;SDS011;5201;48.776;9.128;2022-07-29T14:28:47;3.47;;;2.72;;
10311;SDS011;5201;48.776;9.128;2022-07-29T14:31:14;4.47;;;2.55;;
10311;SDS011;5201;48.776;9.128;2022-07-29T14:33:39;3.63;;;2.97;;
10311;SDS011;5201;48.776;9.128;2022-07-29T14:36:05;2.90;;;2.65;;
10311;SDS011;5201;48.776;9.128;2022-07-29T14:38:31;4.90;;;2.83;;
10311;SDS011;5201;48.776;9.128;2022-07-29T14:40:56;3.40;;;3.10;;
10311;SDS011;5201;48.776;9.128;2022-07-29T14:43:22;4.07;;;2.70;;
10311;SDS011;5201;48.776;9.128;2022-07-29T14:45:48;5.30;;;2.83;;
10311;SDS011;5201;48.776;9.128;2022-07-29T14:48:14;6.15;;;2.97;;
10311;SDS011;5201;48.776;9.128;2022-07-29T14:50:39;3.15;;;2.60;;
10311;SDS011;5201;48.776;9.128;2022-07-29T14:53:05;3.15;;;2.58;;
10311;SDS011;5201;48.776;9.128;2022-07-29T14:55:31;8.13;;;2.63;;
10311;SDS011;5201;48.776;9.128;2022-07-29T14:57:56;2.75;;;2.30;;
10311;SDS011;5201;48.776;9.128;2022-07-29T15:00:24;4.22;;;2.22;;
10311;SDS011;5201;48.776;9.128;2022-07-29T15:02:50;2.28;;;2.08;;
10311;SDS011;5201;48.776;9.128;2022-07-29T15:05:15;2.70;;;2.50;;
10311;SDS011;5201;48.776;9.128;2022-07-29T15:07:41;3.30;;;2.58;;
10311;SDS011;5201;48.776;9.128;2022-07-29T15:10:07;3.72;;;2.58;;
10311;SDS011;5201;48.776;9.128;2022-07-29T15:12:32;4.60;;;3.00;;
10311;SDS011;5201;48.776;9.128;2022-07-29T15:14:58;5.90;;;3.03;;
10311;SDS011;5201;48.776;9.128;2022-07-29T15:17:24;4.75;;;2.60;;
10311;SDS011;5201;48.776;9.128;2022-07-29T15:19:49;6.20;;;2.67;;
10311;SDS011;5201;48.776;9.128;2022-07-29T15:22:15;2.85;;;2.53;;
10311;SDS011;5201;48.776;9.128;2022-07-29T15:24:41;5.25;;;3.08;;
10311;SDS011;5201;48.776;9.128;2022-07-29T15:27:07;2.92;;;2.63;;
10311;SDS011;5201;48.776;9.128;2022-07-29T15:29:38;4.75;;;2.78;;
10311;SDS011;5201;48.776;9.128;2022-07-29T15:32:08;3.75;;;2.60;;
10311;SDS011;5201;48.776;9.128;2022-07-29T15:34:34;4.63;;;2.45;;
10311;SDS011;5201;48.776;9.128;2022-07-29T15:37:00;4.35;;;2.88;;
10311;SDS011;5201;48.776;9.128;2022-07-29T15:39:25;4.47;;;2.72;;
10311;SDS011;5201;48.776;9.128;2022-07-29T15:41:51;4.38;;;2.63;;
10311;SDS011;5201;48.776;9.128;2022-07-29T15:44:17;3.03;;;2.72;;
10311;SDS011;5201;48.776;9.128;2022-07-29T15:46:43;4.15;;;2.90;;
10311;SDS011;5201;48.776;9.128;2022-07-29T15:49:28;5.03;;;2.40;;
10311;SDS011;5201;48.776;9.128;2022-07-29T15:52:02;4.13;;;2.42;;
10311;SDS011;5201;48.776;9.128;2022-07-29T15:54:30;4.72;;;3.17;;